Ana Sayfa
METAR-TAF:

METAR-TAF

Havaalanları :

Mid-Ohio Valley Regional Airport

Parkersburg, Batı Virginia, Amerika Birleşik Devletleri

Enlem: 39-20-42N, Boylam: 081-26-21W, yükseklik: 262 m

Güncel hava durumu gözlemi

Rapor saat 14:53 UTC de 21 dakika önce yapıldı.
Rüzgar değişken yönden 4 kt
Sıcaklık 17°C
Nem 59%
Basınç 1021 hPa
Görüş mesafesi: 16.1 km
Açık gökyüzü

METAR: KPKB 241453Z VRB04KT 10SM CLR 17/09 A3014 RMK AO2 SLP205 T01670094 51006

Saat: 11:14 (15:14 UTC)

Tahmin

Rapor saat 15:03 UTC de 11 dakika önce yapıldı.
Ayın 24'si saat 15 UTC'den ayın 25'si saat 12 UTC'ye kadar geçerli Tahmin
Rüzgar değişken yönden 4 kt
Görüş mesafesi: 10 km
Açık gökyüzü
Ayın 24'si saat 2300 UTC'den
Rüzgar kuzeydan kt
Görüş mesafesi: 10 km
Açık gökyüzü
Ayın 25'si saat 0800 UTC'den
Rüzgar kuzeydan kt
Görüş mesafesi: 10 km
25000 ft yükseklikte parçalı çok bulutlu

TAF: KPKB 241503Z 2415/2512 VRB04KT P6SM SKC FM242300 00000KT P6SM SKC FM250800 00000KT P6SM BKN250

4.000'den fazla havaalanı için hava durumu gözlemleri ve tahminleri (METAR ve TAF raporları).

Kullanılabilir istasyonlar harita üzerinde sarı ve kırmızı noktalarla gösterilir.

İstasyonun adını görmek için fareyi noktanın üzerinde gezdirin.

Sonrasında hava gözlem ve tahminlerini görmek için tıklayın.

Haritayı değiştirmek için: yaklaştırmak için siyah artı işaretli yeşil düğmeye ve uzaklaştırmak için de eksi işaretli düğmeye hızla tıklayın; bitişik haritalar için yeşil okları kullanın.


METAR-TAF: